Kouts, Indiana
Current Conditions -  °F | °C
As of 9:56 PM on Saturday 25 Oct 2014 (Local Time) from KVPZ Reporting Station
Clear Clear  
Wind Chill: 60°   Ceiling: Unl
Heat Index: 60°   Visibility: 10mi
Dew Point: 28°   Wind: 8mph
Humidity: 30%   Direction: 300°WNW
Pressure: 29.95"   Gusts: NA
Location:  41.32°N, 87.03°W
Report Text: KVPZ 260256Z AUTO 30007KT 10SM CLR 16/M02 A2995 RMK AO2 SLP141 T01561022 51012 TSNO
Loading
Personal Weather Stations






























Interactive Weather Map
Tropical Storm Tracking
New forecast layout! Learn more

10-Day Weather Forecast

Advertisements
Track Severe Weather on mobile